createdAt,value
2023-04-10T00:04:52.324Z,6.60
2023-04-10T00:11:34.879Z,6.50
2023-04-10T00:18:17.311Z,6.40
2023-04-10T00:24:59.649Z,6.10
2023-04-10T00:31:43.102Z,6.00
2023-04-10T00:38:25.617Z,5.90
2023-04-10T00:45:09.499Z,5.70
2023-04-10T00:51:52.478Z,5.60
2023-04-10T00:58:34.814Z,5.60
2023-04-10T01:05:17.298Z,5.60
2023-04-10T01:12:32.764Z,5.70
2023-04-10T01:20:00.150Z,5.50
2023-04-10T01:27:09.061Z,5.40
2023-04-10T01:33:56.024Z,5.20
2023-04-10T01:40:42.185Z,5.20
2023-04-10T01:47:28.021Z,5.10
2023-04-10T01:54:10.866Z,5.00
2023-04-10T02:00:53.192Z,5.00
2023-04-10T02:07:37.881Z,4.90
2023-04-10T02:14:23.005Z,4.90
2023-04-10T02:21:07.497Z,4.50
2023-04-10T02:27:49.812Z,4.50
2023-04-10T02:34:32.164Z,4.40
2023-04-10T02:41:14.863Z,4.20
2023-04-10T02:47:57.512Z,4.20
2023-04-10T02:54:40.612Z,4.30
2023-04-10T03:01:23.412Z,4.20
2023-04-10T03:08:06.284Z,4.00
2023-04-10T03:14:48.774Z,4.20
2023-04-10T03:21:31.186Z,4.20
2023-04-10T03:28:13.592Z,4.20
2023-04-10T03:34:58.566Z,4.30
2023-04-10T03:41:41.506Z,4.20
2023-04-10T03:48:24.232Z,4.20
2023-04-10T03:55:07.247Z,4.20
2023-04-10T04:01:49.899Z,3.90
2023-04-10T04:08:32.405Z,3.70
2023-04-10T04:15:23.885Z,3.80
2023-04-10T04:22:32.568Z,3.80
2023-04-10T04:29:24.785Z,3.90
2023-04-10T04:36:26.388Z,4.00
2023-04-10T04:43:16.039Z,4.10
2023-04-10T04:50:17.021Z,4.10
2023-04-10T04:57:28.133Z,4.20
2023-04-10T05:04:20.649Z,4.10
2023-04-10T05:11:23.270Z,4.10
2023-04-10T05:18:24.317Z,4.10
2023-04-10T05:25:19.116Z,4.40
2023-04-10T05:32:19.161Z,4.70
2023-04-10T05:39:33.505Z,4.80
2023-04-10T05:46:27.936Z,5.50
2023-04-10T05:53:38.940Z,5.70
2023-04-10T06:00:27.417Z,6.20
2023-04-10T06:07:35.630Z,7.60
2023-04-10T06:14:20.270Z,8.70
2023-04-10T06:21:02.742Z,9.60
2023-04-10T06:27:45.334Z,10.20
2023-04-10T06:34:27.642Z,10.70
2023-04-10T06:41:19.265Z,10.90
2023-04-10T06:48:01.748Z,12.10
2023-04-10T06:54:44.275Z,13.70
2023-04-10T07:01:26.745Z,14.90
2023-04-10T07:08:09.226Z,15.90
2023-04-10T07:14:51.774Z,17.30
2023-04-10T07:21:34.044Z,19.60
2023-04-10T07:28:16.375Z,22.30
2023-04-10T07:34:58.639Z,23.80
2023-04-10T07:41:40.955Z,25.10
2023-04-10T07:48:23.978Z,25.40
2023-04-10T07:55:06.744Z,25.70
2023-04-10T08:01:49.159Z,26.90
2023-04-10T08:08:31.503Z,26.70
2023-04-10T08:15:13.792Z,26.40
2023-04-10T08:21:56.126Z,27.20
2023-04-10T08:28:38.746Z,27.50
2023-04-10T08:35:21.134Z,27.60
2023-04-10T08:42:03.747Z,26.40
2023-04-10T08:49:02.311Z,26.90
2023-04-10T08:55:45.765Z,25.10
2023-04-10T09:02:28.682Z,24.20
2023-04-10T09:09:11.235Z,23.60
2023-04-10T09:15:58.831Z,23.20
2023-04-10T09:22:41.100Z,23.30
2023-04-10T09:29:25.680Z,23.10
2023-04-10T09:36:13.839Z,24.20
2023-04-10T09:42:56.931Z,24.70
2023-04-10T09:49:53.672Z,23.50
2023-04-10T09:56:38.923Z,24.20
2023-04-10T10:03:21.559Z,23.90
2023-04-10T10:10:06.285Z,23.60
2023-04-10T10:16:54.573Z,23.40
2023-04-10T10:23:37.871Z,23.90
2023-04-10T10:37:08.212Z,24.40
2023-04-10T10:44:01.966Z,24.50
2023-04-10T10:50:58.909Z,23.00
2023-04-10T10:57:54.004Z,22.40
2023-04-10T11:04:46.947Z,21.30
2023-04-10T11:11:30.027Z,20.20
2023-04-10T11:18:12.404Z,20.60
2023-04-10T11:24:58.803Z,19.90
2023-04-10T11:31:41.232Z,20.10
2023-04-10T11:38:23.610Z,19.60
2023-04-10T11:45:26.038Z,19.20
2023-04-10T11:52:08.352Z,19.10
2023-04-10T11:58:54.097Z,19.00
2023-04-10T12:05:49.353Z,19.20
2023-04-10T12:12:36.871Z,19.00
2023-04-10T12:19:20.610Z,18.80
2023-04-10T12:26:13.193Z,19.00
2023-04-10T12:32:55.821Z,19.10
2023-04-10T12:39:38.124Z,19.10
2023-04-10T12:46:28.185Z,19.10
2023-04-10T12:53:12.513Z,19.30
2023-04-10T12:59:55.629Z,19.40
2023-04-10T13:06:48.151Z,19.70
2023-04-10T13:13:32.643Z,19.70
2023-04-10T13:20:15.464Z,19.70
2023-04-10T13:27:01.329Z,20.10
2023-04-10T13:33:48.060Z,20.20
2023-04-10T13:40:30.745Z,20.80
2023-04-10T13:47:13.138Z,20.50
2023-04-10T13:53:55.716Z,20.80
2023-04-10T14:00:38.065Z,20.80
2023-04-10T14:07:20.483Z,20.40
2023-04-10T14:14:02.777Z,20.30
2023-04-10T14:20:45.327Z,20.40
2023-04-10T14:27:27.642Z,20.30
2023-04-10T14:34:09.960Z,20.00
2023-04-10T14:40:53.704Z,20.30
2023-04-10T14:47:36.356Z,20.60
2023-04-10T14:54:21.816Z,20.40
2023-04-10T15:01:07.858Z,20.30
2023-04-10T15:07:50.205Z,20.20
2023-04-10T15:14:32.832Z,20.00
2023-04-10T15:21:16.468Z,20.00
2023-04-10T15:28:00.285Z,20.10
2023-04-10T15:34:44.835Z,19.70
2023-04-10T15:41:28.016Z,19.70
2023-04-10T15:48:10.322Z,19.50
2023-04-10T15:54:52.770Z,19.40
2023-04-10T16:01:35.169Z,19.50
2023-04-10T16:08:17.610Z,19.40
2023-04-10T16:15:00.165Z,19.20
2023-04-10T16:21:42.840Z,19.20
2023-04-10T16:28:26.247Z,19.00
2023-04-10T16:35:08.697Z,19.00
2023-04-10T16:41:50.971Z,18.80
2023-04-10T16:48:36.053Z,18.80
2023-04-10T16:55:18.760Z,18.70
2023-04-10T17:02:01.134Z,18.60
2023-04-10T17:08:44.027Z,18.40
2023-04-10T17:15:26.373Z,18.30
2023-04-10T17:22:16.204Z,18.10
2023-04-10T17:28:58.562Z,17.90
2023-04-10T17:35:40.902Z,17.80
2023-04-10T17:42:24.672Z,17.60
2023-04-10T17:49:07.058Z,17.40
2023-04-10T17:55:49.440Z,17.30
2023-04-10T18:02:31.948Z,17.10
2023-04-10T18:09:14.446Z,17.00
2023-04-10T18:15:56.788Z,16.90
2023-04-10T18:22:39.318Z,16.80
2023-04-10T18:29:22.614Z,16.70
2023-04-10T18:36:05.192Z,16.70
2023-04-10T18:42:47.505Z,16.50
2023-04-10T18:49:31.041Z,16.50
2023-04-10T18:56:13.481Z,16.40
2023-04-10T19:02:56.043Z,16.50
2023-04-10T19:09:38.390Z,16.30
2023-04-10T19:16:20.927Z,16.30
2023-04-10T19:23:03.426Z,16.20
2023-04-10T19:29:45.915Z,16.20
2023-04-10T19:36:28.320Z,16.20
2023-04-10T19:43:11.052Z,16.20
2023-04-10T19:49:53.470Z,16.20
2023-04-10T20:05:04.368Z,16.10
2023-04-10T20:11:46.679Z,15.90
2023-04-10T20:18:29.016Z,15.80
2023-04-10T20:25:11.351Z,15.70
2023-04-10T20:31:53.671Z,15.60
2023-04-10T20:38:36.199Z,15.50
2023-04-10T20:45:18.594Z,15.40
2023-04-10T20:52:00.964Z,15.50
2023-04-10T20:58:43.396Z,15.50
2023-04-10T21:05:25.804Z,15.50
2023-04-10T21:12:08.137Z,15.60
2023-04-10T21:18:50.476Z,15.60
2023-04-10T21:25:33.616Z,15.70
2023-04-10T21:32:15.978Z,15.80
2023-04-10T21:38:58.387Z,15.90
2023-04-10T21:45:40.654Z,15.90
2023-04-10T21:52:22.961Z,15.90
2023-04-10T21:59:05.300Z,15.90
2023-04-10T22:05:48.794Z,15.90
2023-04-10T22:12:31.107Z,15.90
2023-04-10T22:19:13.423Z,15.80
2023-04-10T22:25:55.836Z,15.90
2023-04-10T22:32:38.317Z,15.80
2023-04-10T22:39:20.873Z,15.70
2023-04-10T22:46:03.611Z,15.70
2023-04-10T22:52:45.987Z,15.70
2023-04-10T22:59:28.239Z,15.60
2023-04-10T23:06:10.647Z,15.40
2023-04-10T23:12:52.901Z,15.50
2023-04-10T23:19:35.198Z,15.30
2023-04-10T23:26:17.494Z,15.30
2023-04-10T23:32:59.991Z,15.20
2023-04-10T23:39:42.520Z,15.30
2023-04-10T23:46:24.930Z,15.30
2023-04-10T23:53:08.655Z,15.40
2023-04-10T23:59:51.642Z,15.40
